Laukaa, Finland
Kieli:  Suomi
CurCond
Päivitetty21/08/2019 04:10 
 

Lähistön Lentoasemien Säätiloja:

 

EFJY - Jyvaskyla (mil/C,) Finland
Etäisyys Sääasemalta: PKo 21km
Päivitetty: 21/08/2019 03:50
Patches of fog, Selkeätä
Patches of fog, Selkeätä
 Tuulen suunta EKa
Tuuli: EKa 7 km/h
Lämpötila: 8°C
Tuulen purevuus: 7°C
Kastepiste: 8°C
Ilmankosteus: 100%
Ilmanpaine: 1018 hPa
Yhteenveto: Patches of Fog
Pilvisyys: Selkeätä
Näkyvyys: 3 km
2019/08/21 00:50 EFJY 210050Z AUTO 15004KT 130V190 3100 BCFG NCD 08/08 Q1018
EFHA - Halli (fin-Afb), Finland
Etäisyys Sääasemalta: Lo 56km
Päivitetty: 21/08/2019 03:50
Selkeätä
Selkeätä
 Tuulen suunta E
Tuuli: E 15 km/h
Lämpötila: 13°C
Kastepiste: 12°C
Ilmankosteus: 94%
Ilmanpaine: 1019 hPa
Yhteenveto: Selkeätä
Näkyvyys: Enemmän Kuin 10 km
2019/08/21 00:50 EFHA 210050Z AUTO 19008KT 160V220 CAVOK 13/12 Q1019
EFMI - Mikkeli, Finland
Etäisyys Sääasemalta: IKa 105km
Päivitetty: 21/08/2019 03:50
Selkeätä
Selkeätä
 Tuulen suunta ELo
Tuuli: ELo 6 km/h
Lämpötila: 13°C
Kastepiste: 13°C
Ilmankosteus: 100%
Ilmanpaine: 1020 hPa
Yhteenveto: Selkeätä
Näkyvyys: Enemmän Kuin 10 km
2019/08/21 00:50 EFMI 210050Z AUTO 21003KT CAVOK 13/13 Q1020
 
EFTP - Tampere/Pirkkala, Finland
Etäisyys Sääasemalta: Lo 135km
Päivitetty: 21/08/2019 03:50
Pilvistä
Pilvistä
 Tuulen suunta E
Tuuli: E 11 km/h
Lämpötila: 14°C
Kastepiste: 13°C
Ilmankosteus: 94%
Ilmanpaine: 1019 hPa
Pilvisyys: Pilvistä
Näkyvyys: 10 km
Pilvisyystiedot: Enimmäkseen pilvistä 122 m
Pilvistä 183 m
2019/08/21 00:50 EFTP 210050Z AUTO 18006KT 9999 BKN004 OVC006 14/13 Q1019
EFKU - Kuopio (mil/Civ), Finland
Etäisyys Sääasemalta: Ko 146km
Päivitetty: 21/08/2019 03:50
Selkeätä
Selkeätä
 Tuulen suunta ELo
Tuuli: ELo 9 km/h
Lämpötila: 13°C
Kastepiste: 11°C
Ilmankosteus: 88%
Ilmanpaine: 1018 hPa
Yhteenveto: Selkeätä
Näkyvyys: Enemmän Kuin 10 km
2019/08/21 00:50 EFKU 210050Z AUTO 20005KT CAVOK 13/11 Q1018
EFSI - Seinajoki-Ilmajo, Finland
Etäisyys Sääasemalta: LLu 149km
Päivitetty: 21/08/2019 03:50
Selkeätä
Selkeätä
 Tuulen suunta EKa
Tuuli: EKa 7 km/h
Lämpötila: 12°C
Kastepiste: 12°C
Ilmankosteus: 100%
Ilmanpaine: 1016 hPa
Yhteenveto: Selkeätä
Näkyvyys: Enemmän Kuin 10 km
2019/08/21 00:50 EFSI 210050Z AUTO 15004KT 120V190 CAVOK 12/12 Q1016